sensor_id;sensor_type;location;lat;lon;timestamp;pressure;altitude;pressure_sealevel;temperature;humidity
70833;BME280;58452;59.418;17.962;2023-03-22T00:00:33;100529.50;;;3.37;83.43
70833;BME280;58452;59.418;17.962;2023-03-22T00:02:59;100522.78;;;3.36;83.92
70833;BME280;58452;59.418;17.962;2023-03-22T00:05:25;100518.69;;;3.33;83.41
70833;BME280;58452;59.418;17.962;2023-03-22T00:07:50;100514.00;;;3.40;83.67
70833;BME280;58452;59.418;17.962;2023-03-22T00:10:19;100511.13;;;3.32;83.76
70833;BME280;58452;59.418;17.962;2023-03-22T00:12:44;100508.47;;;3.21;84.44
70833;BME280;58452;59.418;17.962;2023-03-22T00:15:10;100508.16;;;3.13;84.98
70833;BME280;58452;59.418;17.962;2023-03-22T00:17:35;100508.69;;;3.18;85.51
70833;BME280;58452;59.418;17.962;2023-03-22T00:20:02;100497.63;;;3.05;86.32
70833;BME280;58452;59.418;17.962;2023-03-22T00:22:31;100490.72;;;3.07;85.74
70833;BME280;58452;59.418;17.962;2023-03-22T00:24:56;100480.72;;;3.16;86.08
70833;BME280;58452;59.418;17.962;2023-03-22T00:27:22;100474.81;;;3.28;85.97
70833;BME280;58452;59.418;17.962;2023-03-22T00:29:47;100471.56;;;3.39;85.58
70833;BME280;58452;59.418;17.962;2023-03-22T00:32:12;100460.72;;;3.35;85.31
70833;BME280;58452;59.418;17.962;2023-03-22T00:34:38;100455.94;;;3.43;84.71
70833;BME280;58452;59.418;17.962;2023-03-22T00:37:03;100458.19;;;3.48;85.56
70833;BME280;58452;59.418;17.962;2023-03-22T00:39:29;100444.50;;;3.49;85.42
70833;BME280;58452;59.418;17.962;2023-03-22T00:41:54;100450.94;;;3.55;84.92
70833;BME280;58452;59.418;17.962;2023-03-22T00:44:20;100439.69;;;3.57;84.58
70833;BME280;58452;59.418;17.962;2023-03-22T00:46:45;100429.28;;;3.60;84.71
70833;BME280;58452;59.418;17.962;2023-03-22T00:49:10;100432.34;;;3.65;84.44
70833;BME280;58452;59.418;17.962;2023-03-22T00:51:36;100431.09;;;3.71;84.57
70833;BME280;58452;59.418;17.962;2023-03-22T00:54:02;100424.25;;;3.71;83.91
70833;BME280;58452;59.418;17.962;2023-03-22T00:56:27;100416.50;;;3.73;84.31
70833;BME280;58452;59.418;17.962;2023-03-22T00:58:53;100415.16;;;3.67;84.23
70833;BME280;58452;59.418;17.962;2023-03-22T01:01:18;100404.97;;;3.67;84.76
70833;BME280;58452;59.418;17.962;2023-03-22T01:03:44;100404.97;;;3.67;83.95
70833;BME280;58452;59.418;17.962;2023-03-22T01:06:13;100399.69;;;3.70;84.59
70833;BME280;58452;59.418;17.962;2023-03-22T01:08:39;100395.19;;;3.74;84.20
70833;BME280;58452;59.418;17.962;2023-03-22T01:11:05;100385.56;;;3.77;83.88
70833;BME280;58452;59.418;17.962;2023-03-22T01:13:31;100381.97;;;3.80;84.40
70833;BME280;58452;59.418;17.962;2023-03-22T01:15:56;100376.78;;;3.81;84.39
70833;BME280;58452;59.418;17.962;2023-03-22T01:18:22;100361.28;;;3.72;84.16
70833;BME280;58452;59.418;17.962;2023-03-22T01:20:47;100370.03;;;3.80;83.91
70833;BME280;58452;59.418;17.962;2023-03-22T01:23:13;100362.06;;;3.85;84.06
70833;BME280;58452;59.418;17.962;2023-03-22T01:25:38;100357.56;;;3.88;83.78
70833;BME280;58452;59.418;17.962;2023-03-22T01:28:04;100348.13;;;3.89;83.37
70833;BME280;58452;59.418;17.962;2023-03-22T01:30:31;100346.31;;;3.91;83.47
70833;BME280;58452;59.418;17.962;2023-03-22T01:32:56;100332.63;;;3.92;83.45
70833;BME280;58452;59.418;17.962;2023-03-22T01:35:22;100330.53;;;3.97;83.42
70833;BME280;58452;59.418;17.962;2023-03-22T01:37:47;100332.19;;;3.98;83.03
70833;BME280;58452;59.418;17.962;2023-03-22T01:40:14;100325.81;;;4.04;83.27
70833;BME280;58452;59.418;17.962;2023-03-22T01:42:40;100321.50;;;4.04;82.63
70833;BME280;58452;59.418;17.962;2023-03-22T01:47:46;100316.31;;;4.06;83.49
70833;BME280;58452;59.418;17.962;2023-03-22T01:50:13;100299.13;;;4.08;83.24
70833;BME280;58452;59.418;17.962;2023-03-22T01:52:39;100294.25;;;4.05;82.62
70833;BME280;58452;59.418;17.962;2023-03-22T01:55:06;100294.97;;;4.07;83.10
70833;BME280;58452;59.418;17.962;2023-03-22T01:57:34;100288.13;;;4.07;83.66
70833;BME280;58452;59.418;17.962;2023-03-22T02:00:04;100275.50;;;3.93;83.23
70833;BME280;58452;59.418;17.962;2023-03-22T02:02:34;100273.34;;;4.00;83.86
70833;BME280;58452;59.418;17.962;2023-03-22T02:05:00;100268.94;;;4.02;83.45
70833;BME280;58452;59.418;17.962;2023-03-22T02:07:26;100266.16;;;4.05;83.39
70833;BME280;58452;59.418;17.962;2023-03-22T02:09:52;100271.84;;;4.08;83.12
70833;BME280;58452;59.418;17.962;2023-03-22T02:18:01;100243.53;;;4.11;83.12
70833;BME280;58452;59.418;17.962;2023-03-22T02:28:59;100226.84;;;4.07;83.30
70833;BME280;58452;59.418;17.962;2023-03-22T02:34:56;100214.38;;;3.91;84.51
70833;BME280;58452;59.418;17.962;2023-03-22T02:40:36;100202.03;;;3.85;84.39
70833;BME280;58452;59.418;17.962;2023-03-22T02:43:35;100197.75;;;3.86;84.41
70833;BME280;58452;59.418;17.962;2023-03-22T02:46:22;100197.19;;;3.93;85.10
70833;BME280;58452;59.418;17.962;2023-03-22T02:49:02;100191.16;;;3.94;84.00
70833;BME280;58452;59.418;17.962;2023-03-22T02:54:23;100181.88;;;3.93;84.41
70833;BME280;58452;59.418;17.962;2023-03-22T02:56:59;100183.06;;;4.01;84.17
70833;BME280;58452;59.418;17.962;2023-03-22T02:59:28;100178.41;;;3.94;84.14
70833;BME280;58452;59.418;17.962;2023-03-22T03:01:57;100174.72;;;3.99;84.60
70833;BME280;58452;59.418;17.962;2023-03-22T03:04:31;100178.75;;;4.01;84.21
70833;BME280;58452;59.418;17.962;2023-03-22T03:07:03;100169.38;;;4.02;84.20
70833;BME280;58452;59.418;17.962;2023-03-22T03:09:30;100163.34;;;4.03;83.92
70833;BME280;58452;59.418;17.962;2023-03-22T03:11:57;100157.88;;;3.96;84.49
70833;BME280;58452;59.418;17.962;2023-03-22T03:14:28;100147.53;;;3.98;84.34
70833;BME280;58452;59.418;17.962;2023-03-22T03:19:36;100140.38;;;4.03;84.75
70833;BME280;58452;59.418;17.962;2023-03-22T03:25:07;100130.72;;;4.06;84.37
70833;BME280;58452;59.418;17.962;2023-03-22T03:27:39;100126.88;;;4.01;84.67
70833;BME280;58452;59.418;17.962;2023-03-22T03:30:15;100120.97;;;4.00;85.36
70833;BME280;58452;59.418;17.962;2023-03-22T03:32:48;100117.06;;;4.07;85.08
70833;BME280;58452;59.418;17.962;2023-03-22T03:35:20;100102.75;;;4.05;85.39
70833;BME280;58452;59.418;17.962;2023-03-22T03:38:08;100103.91;;;4.12;85.79
70833;BME280;58452;59.418;17.962;2023-03-22T03:40:56;100100.09;;;4.06;85.43
70833;BME280;58452;59.418;17.962;2023-03-22T03:43:23;100096.72;;;4.06;84.93
70833;BME280;58452;59.418;17.962;2023-03-22T03:45:53;100098.13;;;4.10;85.41
70833;BME280;58452;59.418;17.962;2023-03-22T03:48:26;100087.19;;;4.08;85.59
70833;BME280;58452;59.418;17.962;2023-03-22T03:50:53;100093.00;;;4.10;86.13
70833;BME280;58452;59.418;17.962;2023-03-22T03:53:21;100084.31;;;4.12;85.22
70833;BME280;58452;59.418;17.962;2023-03-22T03:55:46;100079.78;;;4.16;85.35
70833;BME280;58452;59.418;17.962;2023-03-22T03:58:11;100078.13;;;4.15;85.41
70833;BME280;58452;59.418;17.962;2023-03-22T04:00:37;100074.09;;;4.12;85.26
70833;BME280;58452;59.418;17.962;2023-03-22T04:03:03;100071.09;;;4.07;86.41
70833;BME280;58452;59.418;17.962;2023-03-22T04:05:30;100068.16;;;4.01;86.80
70833;BME280;58452;59.418;17.962;2023-03-22T04:07:55;100066.09;;;4.06;86.72
70833;BME280;58452;59.418;17.962;2023-03-22T04:10:21;100054.25;;;3.93;86.65
70833;BME280;58452;59.418;17.962;2023-03-22T04:12:46;100061.47;;;4.00;87.21
70833;BME280;58452;59.418;17.962;2023-03-22T04:15:12;100048.91;;;3.97;87.64
70833;BME280;58452;59.418;17.962;2023-03-22T04:17:38;100044.03;;;3.93;88.20
70833;BME280;58452;59.418;17.962;2023-03-22T04:20:09;100040.66;;;3.93;87.93
70833;BME280;58452;59.418;17.962;2023-03-22T04:22:36;100043.59;;;3.88;88.69
70833;BME280;58452;59.418;17.962;2023-03-22T04:25:10;100034.28;;;3.87;88.63
70833;BME280;58452;59.418;17.962;2023-03-22T04:27:41;100027.44;;;3.88;88.75
70833;BME280;58452;59.418;17.962;2023-03-22T04:30:13;100020.72;;;3.98;88.65
70833;BME280;58452;59.418;17.962;2023-03-22T04:32:48;100026.97;;;4.05;88.22
70833;BME280;58452;59.418;17.962;2023-03-22T04:35:14;100021.41;;;4.00;88.20
70833;BME280;58452;59.418;17.962;2023-03-22T04:37:40;100017.34;;;3.98;88.50
70833;BME280;58452;59.418;17.962;2023-03-22T04:40:08;100015.13;;;3.82;88.82
70833;BME280;58452;59.418;17.962;2023-03-22T04:42:34;100006.69;;;3.92;89.51
70833;BME280;58452;59.418;17.962;2023-03-22T04:45:00;100004.81;;;4.06;89.06
70833;BME280;58452;59.418;17.962;2023-03-22T04:47:28;100000.63;;;4.05;89.39
70833;BME280;58452;59.418;17.962;2023-03-22T04:49:54;99994.25;;;4.10;88.96
70833;BME280;58452;59.418;17.962;2023-03-22T04:52:20;99989.34;;;4.18;88.48
70833;BME280;58452;59.418;17.962;2023-03-22T04:54:45;99984.97;;;4.09;89.24
70833;BME280;58452;59.418;17.962;2023-03-22T04:57:10;99990.16;;;4.19;88.09
70833;BME280;58452;59.418;17.962;2023-03-22T04:59:36;99980.53;;;4.11;88.09
70833;BME280;58452;59.418;17.962;2023-03-22T05:02:01;99983.66;;;4.15;88.40
70833;BME280;58452;59.418;17.962;2023-03-22T05:04:27;99976.25;;;4.12;88.74
70833;BME280;58452;59.418;17.962;2023-03-22T05:06:52;99974.84;;;4.08;89.26
70833;BME280;58452;59.418;17.962;2023-03-22T05:09:18;99975.09;;;4.05;90.26
70833;BME280;58452;59.418;17.962;2023-03-22T05:11:43;99974.84;;;4.08;89.59
70833;BME280;58452;59.418;17.962;2023-03-22T05:14:09;99972.53;;;4.16;89.63
70833;BME280;58452;59.418;17.962;2023-03-22T05:16:35;99966.28;;;4.09;89.63
70833;BME280;58452;59.418;17.962;2023-03-22T05:19:01;99975.53;;;4.21;89.65
70833;BME280;58452;59.418;17.962;2023-03-22T05:21:28;99966.13;;;4.21;89.78
70833;BME280;58452;59.418;17.962;2023-03-22T05:23:57;99953.22;;;4.23;89.84
70833;BME280;58452;59.418;17.962;2023-03-22T05:26:26;99947.56;;;4.19;89.76
70833;BME280;58452;59.418;17.962;2023-03-22T05:28:52;99945.34;;;4.15;89.78
70833;BME280;58452;59.418;17.962;2023-03-22T05:31:19;99934.78;;;4.19;90.12
70833;BME280;58452;59.418;17.962;2023-03-22T05:33:49;99934.69;;;4.21;90.08
70833;BME280;58452;59.418;17.962;2023-03-22T05:36:17;99928.66;;;4.22;90.34
70833;BME280;58452;59.418;17.962;2023-03-22T05:38:43;99928.84;;;4.30;89.58
70833;BME280;58452;59.418;17.962;2023-03-22T05:41:10;99936.75;;;4.27;89.72
70833;BME280;58452;59.418;17.962;2023-03-22T05:43:36;99927.44;;;4.26;90.14
70833;BME280;58452;59.418;17.962;2023-03-22T05:46:09;99915.13;;;4.31;90.36
70833;BME280;58452;59.418;17.962;2023-03-22T05:48:36;99908.97;;;4.33;90.01
70833;BME280;58452;59.418;17.962;2023-03-22T05:51:05;99905.66;;;4.22;90.11
70833;BME280;58452;59.418;17.962;2023-03-22T05:53:30;99908.91;;;4.24;91.09
70833;BME280;58452;59.418;17.962;2023-03-22T05:55:57;99900.56;;;4.22;90.75
70833;BME280;58452;59.418;17.962;2023-03-22T05:58:27;99903.47;;;4.17;91.65
70833;BME280;58452;59.418;17.962;2023-03-22T06:00:53;99908.91;;;4.24;91.79
70833;BME280;58452;59.418;17.962;2023-03-22T06:03:20;99908.66;;;4.27;92.59
70833;BME280;58452;59.418;17.962;2023-03-22T06:05:45;99900.31;;;4.25;91.97
70833;BME280;58452;59.418;17.962;2023-03-22T06:08:15;99901.13;;;4.25;92.03
70833;BME280;58452;59.418;17.962;2023-03-22T06:10:41;99900.47;;;4.33;91.90
70833;BME280;58452;59.418;17.962;2023-03-22T06:13:06;99897.88;;;4.44;91.92
70833;BME280;58452;59.418;17.962;2023-03-22T06:15:32;99894.19;;;4.37;91.28
70833;BME280;58452;59.418;17.962;2023-03-22T06:17:57;99896.41;;;4.41;91.27
70833;BME280;58452;59.418;17.962;2023-03-22T06:20:22;99901.50;;;4.41;91.54
70833;BME280;58452;59.418;17.962;2023-03-22T06:22:49;99893.72;;;4.43;91.45
70833;BME280;58452;59.418;17.962;2023-03-22T06:25:15;99900.13;;;4.37;91.95
70833;BME280;58452;59.418;17.962;2023-03-22T06:27:40;99901.81;;;4.27;91.99
70833;BME280;58452;59.418;17.962;2023-03-22T06:30:06;99890.97;;;4.35;92.92
70833;BME280;58452;59.418;17.962;2023-03-22T06:32:32;99884.88;;;4.47;92.33
70833;BME280;58452;59.418;17.962;2023-03-22T06:34:57;99883.94;;;4.48;92.53
70833;BME280;58452;59.418;17.962;2023-03-22T06:37:23;99883.50;;;4.43;92.71
70833;BME280;58452;59.418;17.962;2023-03-22T06:39:49;99876.53;;;4.45;92.37
70833;BME280;58452;59.418;17.962;2023-03-22T06:42:15;99884.19;;;4.45;93.75
70833;BME280;58452;59.418;17.962;2023-03-22T06:44:41;99878.97;;;4.47;93.51
70833;BME280;58452;59.418;17.962;2023-03-22T06:47:09;99867.88;;;4.57;93.53
70833;BME280;58452;59.418;17.962;2023-03-22T06:49:34;99872.72;;;4.60;92.99
70833;BME280;58452;59.418;17.962;2023-03-22T06:52:00;99876.66;;;4.64;93.15
70833;BME280;58452;59.418;17.962;2023-03-22T06:54:26;99866.69;;;4.61;93.70
70833;BME280;58452;59.418;17.962;2023-03-22T06:56:51;99872.41;;;4.74;92.87
70833;BME280;58452;59.418;17.962;2023-03-22T06:59:17;99862.38;;;4.82;93.15
70833;BME280;58452;59.418;17.962;2023-03-22T07:01:42;99863.03;;;4.84;92.81
70833;BME280;58452;59.418;17.962;2023-03-22T07:04:08;99870.59;;;4.86;93.23
70833;BME280;58452;59.418;17.962;2023-03-22T07:06:33;99872.22;;;4.87;92.35
70833;BME280;58452;59.418;17.962;2023-03-22T07:08:59;99862.81;;;4.87;93.10
70833;BME280;58452;59.418;17.962;2023-03-22T07:11:25;99850.31;;;4.94;93.23
70833;BME280;58452;59.418;17.962;2023-03-22T07:13:54;99859.63;;;4.95;92.09
70833;BME280;58452;59.418;17.962;2023-03-22T07:16:20;99848.78;;;4.82;93.46
70833;BME280;58452;59.418;17.962;2023-03-22T07:18:47;99844.50;;;4.92;93.76
70833;BME280;58452;59.418;17.962;2023-03-22T07:21:13;99849.34;;;4.85;93.75
70833;BME280;58452;59.418;17.962;2023-03-22T07:23:39;99849.94;;;4.99;94.57
70833;BME280;58452;59.418;17.962;2023-03-22T07:26:05;99856.09;;;4.96;94.10
70833;BME280;58452;59.418;17.962;2023-03-22T07:28:30;99851.50;;;4.90;94.40
70833;BME280;58452;59.418;17.962;2023-03-22T07:31:04;99848.59;;;4.95;95.01
70833;BME280;58452;59.418;17.962;2023-03-22T07:33:30;99852.44;;;5.10;95.08
70833;BME280;58452;59.418;17.962;2023-03-22T07:35:55;99846.34;;;5.11;95.16
70833;BME280;58452;59.418;17.962;2023-03-22T07:38:21;99854.34;;;5.17;94.27
70833;BME280;58452;59.418;17.962;2023-03-22T07:40:46;99857.44;;;5.21;93.89
70833;BME280;58452;59.418;17.962;2023-03-22T07:43:14;99846.81;;;5.25;93.64
70833;BME280;58452;59.418;17.962;2023-03-22T07:45:39;99839.38;;;5.13;93.97
70833;BME280;58452;59.418;17.962;2023-03-22T07:48:05;99836.94;;;5.11;94.84
70833;BME280;58452;59.418;17.962;2023-03-22T07:50:31;99837.50;;;5.15;94.97
70833;BME280;58452;59.418;17.962;2023-03-22T07:52:56;99833.47;;;5.22;94.48
70833;BME280;58452;59.418;17.962;2023-03-22T07:55:22;99826.91;;;5.29;94.34
70833;BME280;58452;59.418;17.962;2023-03-22T07:57:47;99824.34;;;5.29;95.26
70833;BME280;58452;59.418;17.962;2023-03-22T08:00:13;99823.41;;;5.30;95.05
70833;BME280;58452;59.418;17.962;2023-03-22T08:02:39;99822.63;;;5.39;95.74
70833;BME280;58452;59.418;17.962;2023-03-22T08:05:05;99818.84;;;5.43;95.27
70833;BME280;58452;59.418;17.962;2023-03-22T08:07:31;99810.13;;;5.55;94.66
70833;BME280;58452;59.418;17.962;2023-03-22T08:09:57;99809.19;;;5.66;94.32
70833;BME280;58452;59.418;17.962;2023-03-22T08:12:22;99809.47;;;5.72;93.74
70833;BME280;58452;59.418;17.962;2023-03-22T08:14:47;99816.75;;;5.77;93.61
70833;BME280;58452;59.418;17.962;2023-03-22T08:17:16;99815.66;;;5.60;94.28
70833;BME280;58452;59.418;17.962;2023-03-22T08:19:42;99812.72;;;5.65;94.53
70833;BME280;58452;59.418;17.962;2023-03-22T08:22:08;99813.94;;;5.70;94.11
70833;BME280;58452;59.418;17.962;2023-03-22T08:24:33;99801.94;;;5.61;94.47
70833;BME280;58452;59.418;17.962;2023-03-22T08:26:59;99806.78;;;5.74;94.54
70833;BME280;58452;59.418;17.962;2023-03-22T08:29:25;99797.34;;;5.84;94.56
70833;BME280;58452;59.418;17.962;2023-03-22T08:31:52;99803.41;;;5.73;93.71
70833;BME280;58452;59.418;17.962;2023-03-22T08:34:18;99797.38;;;5.74;94.52
70833;BME280;58452;59.418;17.962;2023-03-22T08:36:44;99797.25;;;5.76;94.47
70833;BME280;58452;59.418;17.962;2023-03-22T08:39:09;99785.91;;;5.78;94.25
70833;BME280;58452;59.418;17.962;2023-03-22T08:41:34;99782.69;;;5.96;93.86
70833;BME280;58452;59.418;17.962;2023-03-22T08:44:00;99785.81;;;5.99;93.77
70833;BME280;58452;59.418;17.962;2023-03-22T08:46:26;99777.72;;;6.04;92.99
70833;BME280;58452;59.418;17.962;2023-03-22T08:48:51;99779.63;;;6.02;93.50
70833;BME280;58452;59.418;17.962;2023-03-22T08:51:19;99780.41;;;6.02;93.72
70833;BME280;58452;59.418;17.962;2023-03-22T08:53:46;99782.03;;;5.94;94.23
70833;BME280;58452;59.418;17.962;2023-03-22T08:56:12;99777.19;;;6.00;94.36
70833;BME280;58452;59.418;17.962;2023-03-22T08:58:44;99787.69;;;6.07;94.29
70833;BME280;58452;59.418;17.962;2023-03-22T09:01:15;99784.72;;;6.11;94.21
70833;BME280;58452;59.418;17.962;2023-03-22T09:03:42;99792.53;;;6.10;94.72
70833;BME280;58452;59.418;17.962;2023-03-22T09:06:09;99779.88;;;6.08;94.47
70833;BME280;58452;59.418;17.962;2023-03-22T09:08:35;99780.16;;;6.05;95.20
70833;BME280;58452;59.418;17.962;2023-03-22T09:11:01;99782.56;;;6.07;95.23
70833;BME280;58452;59.418;17.962;2023-03-22T09:13:27;99769.88;;;6.24;95.23
70833;BME280;58452;59.418;17.962;2023-03-22T09:15:54;99768.25;;;6.33;94.93
70833;BME280;58452;59.418;17.962;2023-03-22T09:18:21;99769.19;;;6.32;94.13
70833;BME280;58452;59.418;17.962;2023-03-22T09:20:48;99761.22;;;6.35;94.21
70833;BME280;58452;59.418;17.962;2023-03-22T09:23:14;99763.94;;;6.24;95.22
70833;BME280;58452;59.418;17.962;2023-03-22T09:25:44;99765.56;;;6.34;94.94
70833;BME280;58452;59.418;17.962;2023-03-22T09:28:10;99754.97;;;6.47;94.67
70833;BME280;58452;59.418;17.962;2023-03-22T09:30:36;99753.09;;;6.49;94.47
70833;BME280;58452;59.418;17.962;2023-03-22T09:33:02;99749.56;;;6.60;94.42
70833;BME280;58452;59.418;17.962;2023-03-22T09:35:28;99751.44;;;6.58;94.49
70833;BME280;58452;59.418;17.962;2023-03-22T09:37:53;99741.94;;;6.68;94.25
70833;BME280;58452;59.418;17.962;2023-03-22T09:40:24;99735.69;;;6.80;93.68
70833;BME280;58452;59.418;17.962;2023-03-22T09:42:53;99732.84;;;6.56;94.07
70833;BME280;58452;59.418;17.962;2023-03-22T09:45:26;99740.59;;;6.73;94.19
70833;BME280;58452;59.418;17.962;2023-03-22T09:47:59;99731.38;;;6.80;93.40
70833;BME280;58452;59.418;17.962;2023-03-22T09:50:30;99733.94;;;6.80;93.31
70833;BME280;58452;59.418;17.962;2023-03-22T09:52:56;99726.38;;;6.79;93.02
70833;BME280;58452;59.418;17.962;2023-03-22T09:55:39;99718.31;;;7.01;92.76
70833;BME280;58452;59.418;17.962;2023-03-22T10:00:55;99706.19;;;6.94;93.04
70833;BME280;58452;59.418;17.962;2023-03-22T10:06:22;99708.56;;;7.05;92.80
70833;BME280;58452;59.418;17.962;2023-03-22T10:09:08;99697.06;;;7.09;92.64
70833;BME280;58452;59.418;17.962;2023-03-22T10:14:20;99707.34;;;7.26;91.92
70833;BME280;58452;59.418;17.962;2023-03-22T10:16:49;99701.69;;;7.23;91.96
70833;BME280;58452;59.418;17.962;2023-03-22T10:19:33;99700.63;;;7.25;91.81
70833;BME280;58452;59.418;17.962;2023-03-22T10:22:00;99703.31;;;7.24;91.63
70833;BME280;58452;59.418;17.962;2023-03-22T10:24:33;99706.91;;;7.31;92.10
70833;BME280;58452;59.418;17.962;2023-03-22T10:26:59;99712.22;;;7.29;91.38
70833;BME280;58452;59.418;17.962;2023-03-22T10:29:36;99716.22;;;7.32;92.19
70833;BME280;58452;59.418;17.962;2023-03-22T10:32:39;99708.25;;;7.35;91.54
70833;BME280;58452;59.418;17.962;2023-03-22T10:35:14;99706.13;;;7.48;91.50
70833;BME280;58452;59.418;17.962;2023-03-22T10:37:42;99699.78;;;7.60;90.78
70833;BME280;58452;59.418;17.962;2023-03-22T10:40:16;99694.66;;;7.60;90.80
70833;BME280;58452;59.418;17.962;2023-03-22T10:42:58;99698.94;;;7.69;91.13
70833;BME280;58452;59.418;17.962;2023-03-22T10:45:25;99699.75;;;7.70;91.00
70833;BME280;58452;59.418;17.962;2023-03-22T10:47:59;99701.13;;;7.64;90.50
70833;BME280;58452;59.418;17.962;2023-03-22T10:50:35;99705.69;;;7.70;90.50
70833;BME280;58452;59.418;17.962;2023-03-22T10:53:57;99696.13;;;7.80;90.56
70833;BME280;58452;59.418;17.962;2023-03-22T10:55:57;99684.28;;;7.88;89.76
70833;BME280;58452;59.418;17.962;2023-03-22T10:58:29;99685.75;;;7.90;90.01
70833;BME280;58452;59.418;17.962;2023-03-22T11:00:57;99688.25;;;7.82;89.76
70833;BME280;58452;59.418;17.962;2023-03-22T11:03:35;99685.09;;;7.88;89.92
70833;BME280;58452;59.418;17.962;2023-03-22T11:06:18;99676.84;;;8.02;90.38
70833;BME280;58452;59.418;17.962;2023-03-22T11:08:49;99681.03;;;8.03;89.51
70833;BME280;58452;59.418;17.962;2023-03-22T11:16:31;99669.69;;;8.14;87.89
70833;BME280;58452;59.418;17.962;2023-03-22T11:19:05;99678.28;;;8.05;88.42
70833;BME280;58452;59.418;17.962;2023-03-22T11:21:32;99676.97;;;8.01;89.12
70833;BME280;58452;59.418;17.962;2023-03-22T11:24:05;99675.47;;;8.16;88.68
70833;BME280;58452;59.418;17.962;2023-03-22T11:26:34;99674.34;;;8.18;88.54
70833;BME280;58452;59.418;17.962;2023-03-22T11:29:12;99660.25;;;8.22;88.62
70833;BME280;58452;59.418;17.962;2023-03-22T11:34:17;99664.06;;;8.18;89.56
70833;BME280;58452;59.418;17.962;2023-03-22T11:36:45;99657.75;;;8.30;89.19
70833;BME280;58452;59.418;17.962;2023-03-22T11:39:15;99657.00;;;8.38;88.51
70833;BME280;58452;59.418;17.962;2023-03-22T11:41:41;99651.13;;;8.54;88.32
70833;BME280;58452;59.418;17.962;2023-03-22T11:44:12;99645.03;;;8.55;87.16
70833;BME280;58452;59.418;17.962;2023-03-22T11:46:38;99648.09;;;8.58;86.72
70833;BME280;58452;59.418;17.962;2023-03-22T11:49:13;99646.50;;;8.65;85.65
70833;BME280;58452;59.418;17.962;2023-03-22T11:51:41;99641.78;;;8.53;85.84
70833;BME280;58452;59.418;17.962;2023-03-22T11:54:09;99641.16;;;8.59;86.01
70833;BME280;58452;59.418;17.962;2023-03-22T11:56:46;99639.09;;;8.70;85.57
70833;BME280;58452;59.418;17.962;2023-03-22T11:59:13;99642.66;;;8.69;85.09
70833;BME280;58452;59.418;17.962;2023-03-22T12:04:18;99635.56;;;8.71;85.23
70833;BME280;58452;59.418;17.962;2023-03-22T12:06:47;99633.63;;;8.73;85.15
70833;BME280;58452;59.418;17.962;2023-03-22T12:12:01;99632.06;;;8.72;85.33
70833;BME280;58452;59.418;17.962;2023-03-22T12:14:42;99633.94;;;8.54;86.50
70833;BME280;58452;59.418;17.962;2023-03-22T12:20:04;99615.06;;;8.88;86.10
70833;BME280;58452;59.418;17.962;2023-03-22T12:22:41;99616.16;;;8.93;84.60
70833;BME280;58452;59.418;17.962;2023-03-22T12:25:19;99615.53;;;9.07;84.70
70833;BME280;58452;59.418;17.962;2023-03-22T12:27:57;99613.31;;;9.12;83.88
70833;BME280;58452;59.418;17.962;2023-03-22T12:30:28;99616.06;;;9.35;83.66
70833;BME280;58452;59.418;17.962;2023-03-22T12:35:24;99613.78;;;9.40;81.91
70833;BME280;58452;59.418;17.962;2023-03-22T12:37:55;99607.81;;;9.48;81.63
70833;BME280;58452;59.418;17.962;2023-03-22T12:40:31;99613.47;;;9.43;82.22
70833;BME280;58452;59.418;17.962;2023-03-22T12:43:22;99610.59;;;9.46;82.35
70833;BME280;58452;59.418;17.962;2023-03-22T12:45:56;99593.19;;;9.64;81.65
70833;BME280;58452;59.418;17.962;2023-03-22T12:48:35;99603.16;;;9.51;81.73
70833;BME280;58452;59.418;17.962;2023-03-22T12:51:07;99602.84;;;9.38;81.34
70833;BME280;58452;59.418;17.962;2023-03-22T12:53:54;99598.03;;;9.35;82.53
70833;BME280;58452;59.418;17.962;2023-03-22T12:56:25;99595.44;;;9.43;82.32
70833;BME280;58452;59.418;17.962;2023-03-22T12:58:55;99585.13;;;9.43;82.35
70833;BME280;58452;59.418;17.962;2023-03-22T13:01:42;99583.88;;;9.39;82.49
70833;BME280;58452;59.418;17.962;2023-03-22T13:09:50;99579.69;;;9.30;82.39
70833;BME280;58452;59.418;17.962;2023-03-22T13:15:19;99574.38;;;9.23;82.29
70833;BME280;58452;59.418;17.962;2023-03-22T13:17:46;99571.13;;;9.21;82.28
70833;BME280;58452;59.418;17.962;2023-03-22T13:27:59;99554.59;;;9.24;84.23
70833;BME280;58452;59.418;17.962;2023-03-22T13:30:31;99537.53;;;9.23;83.12
70833;BME280;58452;59.418;17.962;2023-03-22T13:38:19;99523.84;;;9.30;82.53
70833;BME280;58452;59.418;17.962;2023-03-22T13:43:25;99522.72;;;9.33;83.34
70833;BME280;58452;59.418;17.962;2023-03-22T13:48:51;99526.25;;;9.32;83.07
70833;BME280;58452;59.418;17.962;2023-03-22T14:01:57;99515.13;;;9.48;82.22
70833;BME280;58452;59.418;17.962;2023-03-22T14:04:46;99504.34;;;9.44;81.64
70833;BME280;58452;59.418;17.962;2023-03-22T14:07:24;99509.00;;;9.57;81.75
70833;BME280;58452;59.418;17.962;2023-03-22T14:09:55;99503.16;;;9.63;81.30
70833;BME280;58452;59.418;17.962;2023-03-22T14:12:30;99492.38;;;9.67;80.68
70833;BME280;58452;59.418;17.962;2023-03-22T14:15:00;99488.31;;;9.73;80.62
70833;BME280;58452;59.418;17.962;2023-03-22T14:17:33;99481.38;;;9.81;79.93
70833;BME280;58452;59.418;17.962;2023-03-22T14:20:00;99483.13;;;9.81;80.05
70833;BME280;58452;59.418;17.962;2023-03-22T14:22:32;99488.72;;;9.93;79.85
70833;BME280;58452;59.418;17.962;2023-03-22T14:24:59;99485.47;;;9.99;78.98
70833;BME280;58452;59.418;17.962;2023-03-22T14:27:26;99485.34;;;9.92;79.72
70833;BME280;58452;59.418;17.962;2023-03-22T14:29:52;99473.44;;;9.91;79.07
70833;BME280;58452;59.418;17.962;2023-03-22T14:32:23;99473.94;;;9.87;79.12
70833;BME280;58452;59.418;17.962;2023-03-22T14:35:07;99466.25;;;9.78;79.58
70833;BME280;58452;59.418;17.962;2023-03-22T14:37:35;99466.13;;;9.72;79.74
70833;BME280;58452;59.418;17.962;2023-03-22T14:40:11;99457.91;;;9.68;79.46
70833;BME280;58452;59.418;17.962;2023-03-22T14:42:38;99459.34;;;9.71;79.91